sensor_id;sensor_type;location;lat;lon;timestamp;pressure;altitude;pressure_sealevel;temperature;humidity
77869;BME280;67231;59.144;37.934;2024-03-02T00:00:25;101763.28;;;1.90;80.55
77869;BME280;67231;59.144;37.934;2024-03-02T00:02:56;101771.03;;;1.93;80.35
77869;BME280;67231;59.144;37.934;2024-03-02T00:05:27;101777.06;;;1.95;80.23
77869;BME280;67231;59.144;37.934;2024-03-02T00:07:58;101768.38;;;1.94;79.96
77869;BME280;67231;59.144;37.934;2024-03-02T00:10:43;101778.03;;;1.92;79.77
77869;BME280;67231;59.144;37.934;2024-03-02T00:13:14;101785.72;;;1.97;79.67
77869;BME280;67231;59.144;37.934;2024-03-02T00:15:56;101776.88;;;2.01;79.81
77869;BME280;67231;59.144;37.934;2024-03-02T00:18:34;101775.03;;;2.03;79.36
77869;BME280;67231;59.144;37.934;2024-03-02T00:21:06;101780.22;;;2.05;79.01
77869;BME280;67231;59.144;37.934;2024-03-02T00:23:42;101778.34;;;2.08;78.95
77869;BME280;67231;59.144;37.934;2024-03-02T00:26:11;101778.44;;;2.05;78.51
77869;BME280;67231;59.144;37.934;2024-03-02T00:28:45;101774.19;;;2.03;78.09
77869;BME280;67231;59.144;37.934;2024-03-02T00:31:20;101774.19;;;2.03;78.16
77869;BME280;67231;59.144;37.934;2024-03-02T00:33:48;101773.22;;;2.05;77.78
77869;BME280;67231;59.144;37.934;2024-03-02T00:36:40;101766.38;;;2.01;77.99
77869;BME280;67231;59.144;37.934;2024-03-02T00:39:41;101769.13;;;1.98;78.22
77869;BME280;67231;59.144;37.934;2024-03-02T00:42:10;101770.94;;;1.96;78.48
77869;BME280;67231;59.144;37.934;2024-03-02T00:45:07;101760.63;;;1.91;78.61
77869;BME280;67231;59.144;37.934;2024-03-02T00:47:38;101760.53;;;1.94;78.41
77869;BME280;67231;59.144;37.934;2024-03-02T00:50:21;101763.09;;;1.96;77.75
77869;BME280;67231;59.144;37.934;2024-03-02T00:52:48;101767.38;;;1.97;78.38
77869;BME280;67231;59.144;37.934;2024-03-02T00:55:25;101763.19;;;1.93;78.08
77869;BME280;67231;59.144;37.934;2024-03-02T00:57:52;101769.38;;;1.90;78.25
77869;BME280;67231;59.144;37.934;2024-03-02T01:00:26;101754.63;;;1.88;78.28
77869;BME280;67231;59.144;37.934;2024-03-02T01:02:56;101758.09;;;1.88;78.09
77869;BME280;67231;59.144;37.934;2024-03-02T01:05:57;101765.03;;;1.89;78.15
77869;BME280;67231;59.144;37.934;2024-03-02T01:08:23;101759.75;;;1.91;78.39
77869;BME280;67231;59.144;37.934;2024-03-02T01:10:52;101764.09;;;1.92;78.52
77869;BME280;67231;59.144;37.934;2024-03-02T01:13:18;101761.47;;;1.92;79.07
77869;BME280;67231;59.144;37.934;2024-03-02T01:15:45;101765.84;;;1.91;78.12
77869;BME280;67231;59.144;37.934;2024-03-02T01:18:12;101763.25;;;1.91;78.09
77869;BME280;67231;59.144;37.934;2024-03-02T01:20:42;101763.19;;;1.93;77.76
77869;BME280;67231;59.144;37.934;2024-03-02T01:23:09;101762.16;;;1.97;77.67
77869;BME280;67231;59.144;37.934;2024-03-02T01:25:36;101761.25;;;1.98;77.92
77869;BME280;67231;59.144;37.934;2024-03-02T01:28:05;101759.53;;;1.97;77.39
77869;BME280;67231;59.144;37.934;2024-03-02T01:30:31;101765.56;;;1.99;77.55
77869;BME280;67231;59.144;37.934;2024-03-02T01:33:23;101758.69;;;1.96;77.14
77869;BME280;67231;59.144;37.934;2024-03-02T01:35:54;101767.44;;;1.95;77.22
77869;BME280;67231;59.144;37.934;2024-03-02T01:38:24;101765.75;;;1.94;77.24
77869;BME280;67231;59.144;37.934;2024-03-02T01:40:51;101771.84;;;1.95;77.79
77869;BME280;67231;59.144;37.934;2024-03-02T01:43:18;101774.34;;;1.98;77.82
77869;BME280;67231;59.144;37.934;2024-03-02T01:45:54;101776.97;;;1.98;77.50
77869;BME280;67231;59.144;37.934;2024-03-02T01:48:23;101767.34;;;1.98;77.57
77869;BME280;67231;59.144;37.934;2024-03-02T01:50:50;101770.81;;;1.99;77.97
77869;BME280;67231;59.144;37.934;2024-03-02T01:53:16;101778.78;;;1.96;77.59
77869;BME280;67231;59.144;37.934;2024-03-02T01:55:44;101773.66;;;1.93;78.01
77869;BME280;67231;59.144;37.934;2024-03-02T01:58:10;101775.34;;;1.94;77.95
77869;BME280;67231;59.144;37.934;2024-03-02T02:00:37;101778.78;;;1.96;77.55
77869;BME280;67231;59.144;37.934;2024-03-02T02:03:04;101777.06;;;1.95;77.43
77869;BME280;67231;59.144;37.934;2024-03-02T02:05:50;101770.13;;;1.94;77.90
77869;BME280;67231;59.144;37.934;2024-03-02T02:08:42;101775.28;;;1.95;77.37
77869;BME280;67231;59.144;37.934;2024-03-02T02:11:09;101775.25;;;1.97;77.54
77869;BME280;67231;59.144;37.934;2024-03-02T02:13:37;101782.31;;;1.95;77.38
77869;BME280;67231;59.144;37.934;2024-03-02T02:16:10;101778.91;;;1.93;77.58
77869;BME280;67231;59.144;37.934;2024-03-02T02:18:37;101780.63;;;1.92;77.93
77869;BME280;67231;59.144;37.934;2024-03-02T02:21:04;101778.91;;;1.93;77.78
77869;BME280;67231;59.144;37.934;2024-03-02T02:23:31;101773.56;;;1.96;77.61
77869;BME280;67231;59.144;37.934;2024-03-02T02:25:58;101781.28;;;1.99;77.32
77869;BME280;67231;59.144;37.934;2024-03-02T02:28:26;101785.81;;;1.94;77.60
77869;BME280;67231;59.144;37.934;2024-03-02T02:30:56;101786.69;;;1.94;78.09
77869;BME280;67231;59.144;37.934;2024-03-02T02:33:23;101775.34;;;1.94;77.42
77869;BME280;67231;59.144;37.934;2024-03-02T02:35:50;101774.56;;;1.92;77.56
77869;BME280;67231;59.144;37.934;2024-03-02T02:38:17;101782.31;;;1.95;77.44
77869;BME280;67231;59.144;37.934;2024-03-02T02:40:43;101784.94;;;1.95;77.90
77869;BME280;67231;59.144;37.934;2024-03-02T02:43:10;101781.47;;;1.94;78.12
77869;BME280;67231;59.144;37.934;2024-03-02T02:45:37;101780.63;;;1.92;78.18
77869;BME280;67231;59.144;37.934;2024-03-02T02:48:28;101782.41;;;1.92;77.81
77869;BME280;67231;59.144;37.934;2024-03-02T02:50:55;101780.75;;;1.89;78.47
77869;BME280;67231;59.144;37.934;2024-03-02T02:53:31;101783.41;;;1.88;78.44
77869;BME280;67231;59.144;37.934;2024-03-02T02:55:58;101779.78;;;1.92;78.52
77869;BME280;67231;59.144;37.934;2024-03-02T02:58:24;101783.16;;;1.95;77.82
77869;BME280;67231;59.144;37.934;2024-03-02T03:00:51;101779.63;;;1.96;77.98
77869;BME280;67231;59.144;37.934;2024-03-02T03:03:18;101778.13;;;1.89;78.30
77869;BME280;67231;59.144;37.934;2024-03-02T03:05:46;101782.63;;;1.86;78.14
77869;BME280;67231;59.144;37.934;2024-03-02T03:08:13;101785.28;;;1.84;78.21
77869;BME280;67231;59.144;37.934;2024-03-02T03:10:39;101785.19;;;1.87;78.40
77869;BME280;67231;59.144;37.934;2024-03-02T03:13:06;101778.16;;;1.88;78.60
77869;BME280;67231;59.144;37.934;2024-03-02T03:15:40;101779.84;;;1.90;78.58
77869;BME280;67231;59.144;37.934;2024-03-02T03:18:06;101772.78;;;1.92;78.01
77869;BME280;67231;59.144;37.934;2024-03-02T03:20:39;101784.06;;;1.94;77.64
77869;BME280;67231;59.144;37.934;2024-03-02T03:23:06;101779.00;;;1.90;78.21
77869;BME280;67231;59.144;37.934;2024-03-02T03:25:33;101782.50;;;1.89;78.11
77869;BME280;67231;59.144;37.934;2024-03-02T03:28:01;101773.72;;;1.91;77.84
77869;BME280;67231;59.144;37.934;2024-03-02T03:30:56;101770.50;;;1.83;78.29
77869;BME280;67231;59.144;37.934;2024-03-02T03:33:23;101769.63;;;1.82;78.32
77869;BME280;67231;59.144;37.934;2024-03-02T03:36:15;101770.59;;;1.80;77.96
77869;BME280;67231;59.144;37.934;2024-03-02T03:38:42;101765.53;;;1.75;78.41
77869;BME280;67231;59.144;37.934;2024-03-02T03:41:35;101774.38;;;1.71;78.09
77869;BME280;67231;59.144;37.934;2024-03-02T03:44:02;101768.28;;;1.71;78.23
77869;BME280;67231;59.144;37.934;2024-03-02T03:46:29;101763.91;;;1.71;78.31
77869;BME280;67231;59.144;37.934;2024-03-02T03:48:56;101770.75;;;1.75;78.60
77869;BME280;67231;59.144;37.934;2024-03-02T03:51:23;101772.34;;;1.79;77.90
77869;BME280;67231;59.144;37.934;2024-03-02T03:53:51;101779.34;;;1.79;77.95
77869;BME280;67231;59.144;37.934;2024-03-02T03:56:17;101783.78;;;1.77;77.96
77869;BME280;67231;59.144;37.934;2024-03-02T03:58:44;101788.25;;;1.73;77.96
77869;BME280;67231;59.144;37.934;2024-03-02T04:01:11;101784.75;;;1.74;78.27
77869;BME280;67231;59.144;37.934;2024-03-02T04:03:38;101768.88;;;1.79;77.76
77869;BME280;67231;59.144;37.934;2024-03-02T04:06:05;101785.53;;;1.76;78.08
77869;BME280;67231;59.144;37.934;2024-03-02T04:08:33;101781.06;;;1.80;78.25
77869;BME280;67231;59.144;37.934;2024-03-02T04:11:00;101771.44;;;1.80;77.64
77869;BME280;67231;59.144;37.934;2024-03-02T04:13:30;101777.44;;;1.84;77.70
77869;BME280;67231;59.144;37.934;2024-03-02T04:16:09;101773.97;;;1.84;78.06
77869;BME280;67231;59.144;37.934;2024-03-02T04:18:36;101772.94;;;1.88;77.54
77869;BME280;67231;59.144;37.934;2024-03-02T04:21:32;101779.09;;;1.87;77.17
77869;BME280;67231;59.144;37.934;2024-03-02T04:24:00;101782.63;;;1.86;77.42
77869;BME280;67231;59.144;37.934;2024-03-02T04:26:28;101786.03;;;1.88;78.05
77869;BME280;67231;59.144;37.934;2024-03-02T04:29:01;101776.31;;;1.91;77.42
77869;BME280;67231;59.144;37.934;2024-03-02T04:31:29;101787.59;;;1.93;77.44
77869;BME280;67231;59.144;37.934;2024-03-02T04:33:59;101772.88;;;1.89;77.91
77869;BME280;67231;59.144;37.934;2024-03-02T04:36:25;101783.50;;;1.85;77.95
77869;BME280;67231;59.144;37.934;2024-03-02T04:38:52;101782.50;;;1.89;77.57
77869;BME280;67231;59.144;37.934;2024-03-02T04:41:20;101782.41;;;1.92;77.75
77869;BME280;67231;59.144;37.934;2024-03-02T04:43:48;101785.81;;;1.94;76.95
77869;BME280;67231;59.144;37.934;2024-03-02T04:46:14;101781.34;;;1.97;77.15
77869;BME280;67231;59.144;37.934;2024-03-02T04:48:41;101789.03;;;2.02;76.79
77869;BME280;67231;59.144;37.934;2024-03-02T04:51:09;101788.97;;;2.04;76.95
77869;BME280;67231;59.144;37.934;2024-03-02T04:53:38;101786.25;;;2.07;76.42
77869;BME280;67231;59.144;37.934;2024-03-02T04:56:04;101786.09;;;2.11;76.66
77869;BME280;67231;59.144;37.934;2024-03-02T04:59:16;101793.03;;;2.12;76.34
77869;BME280;67231;59.144;37.934;2024-03-02T05:01:44;101788.72;;;2.11;76.58
77869;BME280;67231;59.144;37.934;2024-03-02T05:04:13;101785.09;;;2.15;76.39
77869;BME280;67231;59.144;37.934;2024-03-02T05:06:43;101782.38;;;2.18;76.23
77869;BME280;67231;59.144;37.934;2024-03-02T05:09:14;101788.38;;;2.21;76.24
77869;BME280;67231;59.144;37.934;2024-03-02T05:11:41;101785.72;;;2.22;76.15
77869;BME280;67231;59.144;37.934;2024-03-02T05:14:10;101788.50;;;2.17;76.68
77869;BME280;67231;59.144;37.934;2024-03-02T05:16:37;101789.28;;;2.19;76.48
77869;BME280;67231;59.144;37.934;2024-03-02T05:19:08;101780.53;;;2.21;76.79
77869;BME280;67231;59.144;37.934;2024-03-02T05:21:36;101785.63;;;2.25;76.48
77869;BME280;67231;59.144;37.934;2024-03-02T05:24:06;101775.88;;;2.29;76.47
77869;BME280;67231;59.144;37.934;2024-03-02T05:26:33;101776.66;;;2.31;76.50
77869;BME280;67231;59.144;37.934;2024-03-02T05:29:00;101778.22;;;2.36;75.76
77869;BME280;67231;59.144;37.934;2024-03-02T05:31:26;101778.13;;;2.40;75.63
77869;BME280;67231;59.144;37.934;2024-03-02T05:33:53;101777.88;;;2.46;75.40
77869;BME280;67231;59.144;37.934;2024-03-02T05:36:23;101772.59;;;2.47;75.33
77869;BME280;67231;59.144;37.934;2024-03-02T05:39:00;101782.03;;;2.51;75.44
77869;BME280;67231;59.144;37.934;2024-03-02T05:41:29;101771.44;;;2.54;75.68
77869;BME280;67231;59.144;37.934;2024-03-02T05:43:56;101769.97;;;2.47;75.78
77869;BME280;67231;59.144;37.934;2024-03-02T05:46:23;101778.75;;;2.46;76.09
77869;BME280;67231;59.144;37.934;2024-03-02T05:48:50;101779.69;;;2.44;76.13
77869;BME280;67231;59.144;37.934;2024-03-02T05:54:12;101783.91;;;2.48;76.15
77869;BME280;67231;59.144;37.934;2024-03-02T05:57:05;101788.25;;;2.49;75.82
77869;BME280;67231;59.144;37.934;2024-03-02T06:00:02;101794.19;;;2.54;75.77
77869;BME280;67231;59.144;37.934;2024-03-02T06:02:41;101790.34;;;2.63;75.30
77869;BME280;67231;59.144;37.934;2024-03-02T06:05:07;101791.22;;;2.63;75.95
77869;BME280;67231;59.144;37.934;2024-03-02T06:07:35;101792.00;;;2.65;75.15
77869;BME280;67231;59.144;37.934;2024-03-02T06:10:04;101785.00;;;2.66;75.64
77869;BME280;67231;59.144;37.934;2024-03-02T06:12:36;101792.06;;;2.64;75.25
77869;BME280;67231;59.144;37.934;2024-03-02T06:15:06;101795.38;;;2.69;75.04
77869;BME280;67231;59.144;37.934;2024-03-02T06:17:35;101797.72;;;2.77;74.98
77869;BME280;67231;59.144;37.934;2024-03-02T06:20:09;101816.56;;;2.86;74.75
77869;BME280;67231;59.144;37.934;2024-03-02T06:22:40;101808.25;;;2.99;73.95
77869;BME280;67231;59.144;37.934;2024-03-02T06:25:11;101816.88;;;3.01;74.35
77869;BME280;67231;59.144;37.934;2024-03-02T06:27:41;101812.78;;;2.94;74.36
77869;BME280;67231;59.144;37.934;2024-03-02T06:30:10;101817.84;;;2.98;74.34
77869;BME280;67231;59.144;37.934;2024-03-02T06:32:37;101819.41;;;3.04;73.93
77869;BME280;67231;59.144;37.934;2024-03-02T06:35:07;101817.44;;;3.09;74.23
77869;BME280;67231;59.144;37.934;2024-03-02T06:37:38;101814.34;;;3.21;73.68
77869;BME280;67231;59.144;37.934;2024-03-02T06:40:06;101815.25;;;3.20;73.34
77869;BME280;67231;59.144;37.934;2024-03-02T06:42:34;101813.38;;;3.24;73.96
77869;BME280;67231;59.144;37.934;2024-03-02T06:45:27;101824.34;;;3.34;73.35
77869;BME280;67231;59.144;37.934;2024-03-02T06:47:58;101815.31;;;3.41;72.97
77869;BME280;67231;59.144;37.934;2024-03-02T06:50:30;101818.69;;;3.44;72.66
77869;BME280;67231;59.144;37.934;2024-03-02T06:52:59;101824.53;;;3.51;72.40
77869;BME280;67231;59.144;37.934;2024-03-02T06:55:27;101821.91;;;3.51;72.67
77869;BME280;67231;59.144;37.934;2024-03-02T06:57:53;101828.88;;;3.52;72.15
77869;BME280;67231;59.144;37.934;2024-03-02T07:00:20;101826.97;;;3.56;72.36
77869;BME280;67231;59.144;37.934;2024-03-02T07:02:47;101819.03;;;3.57;72.12
77869;BME280;67231;59.144;37.934;2024-03-02T07:05:40;101822.25;;;3.64;72.20
77869;BME280;67231;59.144;37.934;2024-03-02T07:08:15;101836.03;;;3.69;72.01
77869;BME280;67231;59.144;37.934;2024-03-02T07:10:47;101834.47;;;3.65;72.13
77869;BME280;67231;59.144;37.934;2024-03-02T07:13:13;101824.81;;;3.65;72.15
77869;BME280;67231;59.144;37.934;2024-03-02T07:15:40;101834.47;;;3.65;71.81
77869;BME280;67231;59.144;37.934;2024-03-02T07:18:32;101826.47;;;3.68;71.72
77869;BME280;67231;59.144;37.934;2024-03-02T07:21:32;101836.84;;;3.71;70.95
77869;BME280;67231;59.144;37.934;2024-03-02T07:24:00;101836.91;;;3.70;71.98
77869;BME280;67231;59.144;37.934;2024-03-02T07:26:31;101840.44;;;3.69;72.44
77869;BME280;67231;59.144;37.934;2024-03-02T07:29:00;101850.34;;;3.84;71.34
77869;BME280;67231;59.144;37.934;2024-03-02T07:31:30;101845.69;;;3.91;71.34
77869;BME280;67231;59.144;37.934;2024-03-02T07:34:07;101848.13;;;3.95;71.33
77869;BME280;67231;59.144;37.934;2024-03-02T07:36:37;101846.28;;;3.97;71.14
77869;BME280;67231;59.144;37.934;2024-03-02T07:39:08;101854.22;;;3.96;70.61
77869;BME280;67231;59.144;37.934;2024-03-02T07:41:35;101856.19;;;3.91;71.16
77869;BME280;67231;59.144;37.934;2024-03-02T07:44:11;101853.81;;;3.85;71.78
77869;BME280;67231;59.144;37.934;2024-03-02T07:46:42;101850.47;;;3.81;71.68
77869;BME280;67231;59.144;37.934;2024-03-02T07:49:13;101848.63;;;3.83;71.91
77869;BME280;67231;59.144;37.934;2024-03-02T07:51:43;101857.28;;;3.85;71.15
77869;BME280;67231;59.144;37.934;2024-03-02T07:54:12;101858.75;;;3.92;71.13
77869;BME280;67231;59.144;37.934;2024-03-02T07:56:39;101850.81;;;3.94;70.65
77869;BME280;67231;59.144;37.934;2024-03-02T07:59:16;101853.63;;;3.89;70.84
77869;BME280;67231;59.144;37.934;2024-03-02T08:01:50;101861.19;;;3.97;70.95
77869;BME280;67231;59.144;37.934;2024-03-02T08:04:23;101869.78;;;4.00;70.49
77869;BME280;67231;59.144;37.934;2024-03-02T08:06:50;101869.25;;;3.92;71.55
77869;BME280;67231;59.144;37.934;2024-03-02T08:09:17;101860.41;;;3.73;71.18
77869;BME280;67231;59.144;37.934;2024-03-02T08:11:44;101866.03;;;3.63;70.91
77869;BME280;67231;59.144;37.934;2024-03-02T08:14:11;101871.22;;;3.65;72.03
77869;BME280;67231;59.144;37.934;2024-03-02T08:17:04;101871.72;;;3.75;71.37
77869;BME280;67231;59.144;37.934;2024-03-02T08:19:37;101872.69;;;3.72;71.56
77869;BME280;67231;59.144;37.934;2024-03-02T08:22:29;101867.69;;;3.66;71.03
77869;BME280;67231;59.144;37.934;2024-03-02T08:25:10;101874.56;;;3.69;71.37
77869;BME280;67231;59.144;37.934;2024-03-02T08:27:37;101871.81;;;3.72;71.27
77869;BME280;67231;59.144;37.934;2024-03-02T08:30:17;101866.56;;;3.72;70.35
77869;BME280;67231;59.144;37.934;2024-03-02T08:32:45;101878.03;;;3.69;70.42
77869;BME280;67231;59.144;37.934;2024-03-02T08:35:18;101874.50;;;3.70;70.93
77869;BME280;67231;59.144;37.934;2024-03-02T08:38:08;101873.31;;;3.79;69.40
77869;BME280;67231;59.144;37.934;2024-03-02T08:40:34;101873.09;;;3.83;70.26
77869;BME280;67231;59.144;37.934;2024-03-02T08:43:01;101873.84;;;3.87;69.82
77869;BME280;67231;59.144;37.934;2024-03-02T08:45:27;101878.03;;;3.91;69.85
77869;BME280;67231;59.144;37.934;2024-03-02T08:47:54;101875.66;;;3.85;70.30
77869;BME280;67231;59.144;37.934;2024-03-02T08:50:27;101865.22;;;3.83;70.09
77869;BME280;67231;59.144;37.934;2024-03-02T08:52:54;101872.25;;;3.83;69.82
77869;BME280;67231;59.144;37.934;2024-03-02T08:55:21;101863.34;;;3.87;69.79
77869;BME280;67231;59.144;37.934;2024-03-02T08:57:48;101867.41;;;3.94;68.90
77869;BME280;67231;59.144;37.934;2024-03-02T09:00:17;101869.84;;;3.99;68.57
77869;BME280;67231;59.144;37.934;2024-03-02T09:02:46;101860.31;;;3.96;68.34
77869;BME280;67231;59.144;37.934;2024-03-02T09:05:14;101864.25;;;3.86;69.06
77869;BME280;67231;59.144;37.934;2024-03-02T09:07:43;101861.69;;;3.85;70.06
77869;BME280;67231;59.144;37.934;2024-03-02T09:10:10;101862.16;;;3.94;69.08
77869;BME280;67231;59.144;37.934;2024-03-02T09:12:37;101865.72;;;3.93;69.59
77869;BME280;67231;59.144;37.934;2024-03-02T09:15:04;101853.88;;;3.83;69.30
77869;BME280;67231;59.144;37.934;2024-03-02T09:17:35;101852.66;;;3.70;69.17
77869;BME280;67231;59.144;37.934;2024-03-02T09:20:02;101847.91;;;3.57;69.62
77869;BME280;67231;59.144;37.934;2024-03-02T09:22:30;101854.06;;;3.56;69.60
77869;BME280;67231;59.144;37.934;2024-03-02T09:25:22;101854.88;;;3.58;69.41
77869;BME280;67231;59.144;37.934;2024-03-02T09:27:52;101843.13;;;3.67;69.43
77869;BME280;67231;59.144;37.934;2024-03-02T09:30:19;101854.09;;;3.77;68.61
77869;BME280;67231;59.144;37.934;2024-03-02T09:32:46;101853.16;;;3.79;69.01
77869;BME280;67231;59.144;37.934;2024-03-02T09:35:13;101847.66;;;3.86;68.64
77869;BME280;67231;59.144;37.934;2024-03-02T09:37:39;101848.38;;;3.89;68.41
77869;BME280;67231;59.144;37.934;2024-03-02T09:40:06;101841.00;;;3.97;68.66
77869;BME280;67231;59.144;37.934;2024-03-02T09:42:37;101843.38;;;4.04;68.85
77869;BME280;67231;59.144;37.934;2024-03-02T09:45:09;101848.38;;;4.10;68.51
77869;BME280;67231;59.144;37.934;2024-03-02T09:48:00;101847.09;;;3.98;68.54
77869;BME280;67231;59.144;37.934;2024-03-02T09:50:27;101850.22;;;3.87;67.94
77869;BME280;67231;59.144;37.934;2024-03-02T09:52:54;101853.63;;;3.89;68.42
77869;BME280;67231;59.144;37.934;2024-03-02T09:55:22;101849.50;;;3.82;69.13
77869;BME280;67231;59.144;37.934;2024-03-02T09:57:48;101845.19;;;3.81;69.18
77869;BME280;67231;59.144;37.934;2024-03-02T10:00:40;101852.78;;;3.89;69.01
77869;BME280;67231;59.144;37.934;2024-03-02T10:03:33;101853.38;;;3.95;68.43
77869;BME280;67231;59.144;37.934;2024-03-02T10:06:20;101847.34;;;3.93;68.56
77869;BME280;67231;59.144;37.934;2024-03-02T10:08:48;101845.03;;;3.86;67.59
77869;BME280;67231;59.144;37.934;2024-03-02T10:11:31;101853.88;;;3.83;67.58
77869;BME280;67231;59.144;37.934;2024-03-02T10:14:11;101842.44;;;3.84;67.75
77869;BME280;67231;59.144;37.934;2024-03-02T10:16:45;101836.53;;;3.79;67.54
77869;BME280;67231;59.144;37.934;2024-03-02T10:19:22;101851.91;;;3.88;67.31
77869;BME280;67231;59.144;37.934;2024-03-02T10:22:04;101838.50;;;3.94;67.67
77869;BME280;67231;59.144;37.934;2024-03-02T10:24:36;101849.09;;;3.93;68.40
77869;BME280;67231;59.144;37.934;2024-03-02T10:27:15;101852.78;;;3.89;67.85
77869;BME280;67231;59.144;37.934;2024-03-02T10:29:46;101837.06;;;3.87;67.94
77869;BME280;67231;59.144;37.934;2024-03-02T10:32:22;101853.75;;;3.86;67.67
77869;BME280;67231;59.144;37.934;2024-03-02T10:38:05;101848.50;;;3.86;67.41
77869;BME280;67231;59.144;37.934;2024-03-02T10:40:33;101844.47;;;3.77;67.70
77869;BME280;67231;59.144;37.934;2024-03-02T10:43:05;101846.84;;;3.83;67.63
77869;BME280;67231;59.144;37.934;2024-03-02T10:45:52;101844.69;;;3.93;67.30
77869;BME280;67231;59.144;37.934;2024-03-02T10:48:20;101851.53;;;3.97;67.36
77869;BME280;67231;59.144;37.934;2024-03-02T10:50:56;101847.53;;;3.89;66.99
77869;BME280;67231;59.144;37.934;2024-03-02T10:53:30;101855.94;;;3.97;67.19
77869;BME280;67231;59.144;37.934;2024-03-02T10:56:09;101854.41;;;3.91;67.46
77869;BME280;67231;59.144;37.934;2024-03-02T10:58:47;101853.75;;;3.86;68.34
77869;BME280;67231;59.144;37.934;2024-03-02T11:01:18;101848.25;;;3.92;67.64
77869;BME280;67231;59.144;37.934;2024-03-02T11:03:47;101846.59;;;3.90;67.64
77869;BME280;67231;59.144;37.934;2024-03-02T11:06:14;101859.84;;;3.87;68.25
77869;BME280;67231;59.144;37.934;2024-03-02T11:09:00;101852.03;;;3.85;67.55
77869;BME280;67231;59.144;37.934;2024-03-02T11:12:12;101852.78;;;3.89;67.89
77869;BME280;67231;59.144;37.934;2024-03-02T11:14:51;101854.47;;;3.90;68.46
77869;BME280;67231;59.144;37.934;2024-03-02T11:17:29;101863.09;;;3.93;67.70
77869;BME280;67231;59.144;37.934;2024-03-02T11:20:04;101857.03;;;3.91;67.80
77869;BME280;67231;59.144;37.934;2024-03-02T11:23:10;101855.47;;;3.87;67.85
77869;BME280;67231;59.144;37.934;2024-03-02T11:25:39;101862.94;;;3.76;67.75
77869;BME280;67231;59.144;37.934;2024-03-02T11:28:14;101864.13;;;3.67;68.08
77869;BME280;67231;59.144;37.934;2024-03-02T11:33:56;101853.22;;;3.56;67.77
77869;BME280;67231;59.144;37.934;2024-03-02T11:36:30;101854.81;;;3.60;67.95
77869;BME280;67231;59.144;37.934;2024-03-02T11:39:18;101855.59;;;3.62;67.98
77869;BME280;67231;59.144;37.934;2024-03-02T11:41:51;101852.91;;;3.63;67.54
77869;BME280;67231;59.144;37.934;2024-03-02T11:44:33;101853.16;;;3.57;68.19
77869;BME280;67231;59.144;37.934;2024-03-02T11:47:01;101863.09;;;3.49;68.76
77869;BME280;67231;59.144;37.934;2024-03-02T11:49:40;101858.75;;;3.48;67.95
77869;BME280;67231;59.144;37.934;2024-03-02T11:52:10;101866.69;;;3.46;68.15
77869;BME280;67231;59.144;37.934;2024-03-02T11:54:40;101859.22;;;3.37;68.50
77869;BME280;67231;59.144;37.934;2024-03-02T11:57:13;101851.88;;;3.45;68.44
77869;BME280;67231;59.144;37.934;2024-03-02T11:59:46;101855.13;;;3.52;68.59
77869;BME280;67231;59.144;37.934;2024-03-02T12:02:21;101857.63;;;3.55;68.17
77869;BME280;67231;59.144;37.934;2024-03-02T12:04:51;101863.59;;;3.59;68.13
77869;BME280;67231;59.144;37.934;2024-03-02T12:07:23;101876.72;;;3.59;68.44
77869;BME280;67231;59.144;37.934;2024-03-02T12:10:01;101869.91;;;3.55;67.97
77869;BME280;67231;59.144;37.934;2024-03-02T12:16:25;101866.81;;;3.43;68.79
77869;BME280;67231;59.144;37.934;2024-03-02T12:19:01;101868.78;;;3.38;68.39
77869;BME280;67231;59.144;37.934;2024-03-02T12:21:29;101870.00;;;3.30;68.78
77869;BME280;67231;59.144;37.934;2024-03-02T12:23:55;101868.16;;;3.32;68.90
77869;BME280;67231;59.144;37.934;2024-03-02T12:26:28;101865.59;;;3.30;69.08
77869;BME280;67231;59.144;37.934;2024-03-02T12:28:55;101863.69;;;3.34;68.95
77869;BME280;67231;59.144;37.934;2024-03-02T12:31:23;101856.75;;;3.33;69.19
77869;BME280;67231;59.144;37.934;2024-03-02T12:33:50;101865.47;;;3.33;68.62
77869;BME280;67231;59.144;37.934;2024-03-02T12:36:36;101864.63;;;3.33;68.48
77869;BME280;67231;59.144;37.934;2024-03-02T12:39:04;101861.94;;;3.34;69.09
77869;BME280;67231;59.144;37.934;2024-03-02T12:41:31;101855.66;;;3.38;68.58
77869;BME280;67231;59.144;37.934;2024-03-02T12:43:57;101866.91;;;3.42;68.91
77869;BME280;67231;59.144;37.934;2024-03-02T12:46:33;101867.81;;;3.41;68.05
77869;BME280;67231;59.144;37.934;2024-03-02T12:49:10;101864.81;;;3.28;68.73
77869;BME280;67231;59.144;37.934;2024-03-02T12:52:05;101862.41;;;3.22;68.36
77869;BME280;67231;59.144;37.934;2024-03-02T12:54:33;101857.22;;;3.20;69.13
77869;BME280;67231;59.144;37.934;2024-03-02T12:57:02;101863.50;;;3.16;68.69
77869;BME280;67231;59.144;37.934;2024-03-02T12:59:28;101868.00;;;3.13;69.16
77869;BME280;67231;59.144;37.934;2024-03-02T13:01:56;101857.63;;;3.09;68.66
77869;BME280;67231;59.144;37.934;2024-03-02T13:04:28;101871.72;;;3.07;68.63
77869;BME280;67231;59.144;37.934;2024-03-02T13:06:56;101872.75;;;3.03;68.99
77869;BME280;67231;59.144;37.934;2024-03-02T13:09:24;101869.50;;;2.96;68.78
77869;BME280;67231;59.144;37.934;2024-03-02T13:11:51;101872.28;;;2.91;69.29
77869;BME280;67231;59.144;37.934;2024-03-02T13:14:17;101868.09;;;2.87;69.45
77869;BME280;67231;59.144;37.934;2024-03-02T13:16:44;101873.44;;;2.84;69.29
77869;BME280;67231;59.144;37.934;2024-03-02T13:19:14;101881.47;;;2.80;68.87
77869;BME280;67231;59.144;37.934;2024-03-02T13:21:40;101868.53;;;2.75;69.27
77869;BME280;67231;59.144;37.934;2024-03-02T13:24:08;101859.94;;;2.71;69.24
77869;BME280;67231;59.144;37.934;2024-03-02T13:26:35;101863.50;;;2.69;69.65
77869;BME280;67231;59.144;37.934;2024-03-02T13:29:02;101861.91;;;2.65;69.35